Time;durP1;ratioP1;P1;durP2;ratioP2;P2;SDS_P1;SDS_P2;PMS_P1;PMS_P2;Temp;Humidity;BMP_temperature;BMP_pressure;BME280_temperature;BME280_humidity;BME280_pressure;Samples;Min_cycle;Max_cycle;Signal;HPM_P1;HPM_P2
2022/10/27 00:00:28;;;;;;;15.03;11.47;;;13.60;99.90;;;;;;5118882;27;20494;-73
2022/10/27 00:02:56;;;;;;;16.80;12.37;;;13.60;99.90;;;;;;5115165;27;20518;-69
2022/10/27 00:05:24;;;;;;;14.73;12.63;;;13.50;99.90;;;;;;5114550;27;20962;-71
2022/10/27 00:07:52;;;;;;;14.93;11.63;;;13.50;99.90;;;;;;5111365;27;20966;-70
2022/10/27 00:10:19;;;;;;;13.50;11.33;;;13.50;99.90;;;;;;5113153;27;20527;-68
2022/10/27 00:12:46;;;;;;;13.00;11.67;;;13.50;99.90;;;;;;5111538;27;20510;-68
2022/10/27 00:15:14;;;;;;;19.10;10.87;;;13.40;99.90;;;;;;5113896;27;20487;-68
2022/10/27 00:17:41;;;;;;;12.63;11.40;;;13.40;99.90;;;;;;5113233;27;20798;-73
2022/10/27 00:20:09;;;;;;;13.03;11.60;;;13.40;99.90;;;;;;5110193;27;20497;-71
2022/10/27 00:22:37;;;;;;;21.10;11.40;;;13.50;99.90;;;;;;5112134;27;20456;-68
2022/10/27 00:25:05;;;;;;;16.43;11.40;;;13.50;99.90;;;;;;5113160;27;20843;-70
2022/10/27 00:27:32;;;;;;;14.83;11.63;;;13.50;99.90;;;;;;5114075;27;20484;-68
2022/10/27 00:29:59;;;;;;;13.47;11.10;;;13.50;99.90;;;;;;5105404;27;20500;-68
2022/10/27 00:32:26;;;;;;;22.50;11.57;;;13.50;99.90;;;;;;5112487;27;20452;-68
2022/10/27 00:34:53;;;;;;;14.90;10.33;;;13.50;99.90;;;;;;5107362;27;20465;-68
2022/10/27 00:37:19;;;;;;;14.97;11.40;;;13.50;99.90;;;;;;5117559;27;20525;-68
2022/10/27 00:39:48;;;;;;;11.87;10.30;;;13.40;99.90;;;;;;5109741;27;20464;-68
2022/10/27 00:42:15;;;;;;;20.43;10.03;;;13.30;99.90;;;;;;5111208;27;20496;-72
2022/10/27 00:44:44;;;;;;;17.03;10.90;;;13.30;99.90;;;;;;5114291;27;20966;-69
2022/10/27 00:47:20;;;;;;;16.33;10.90;;;13.30;99.90;;;;;;5110840;28;20465;-68
2022/10/27 00:49:53;;;;;;;15.93;10.80;;;13.30;99.90;;;;;;5111065;28;20604;-69
2022/10/27 00:52:25;;;;;;;18.23;9.20;;;13.30;99.90;;;;;;5109952;28;20473;-68
2022/10/27 00:54:56;;;;;;;15.47;9.33;;;13.30;99.90;;;;;;5114675;28;20457;-69
2022/10/27 00:57:23;;;;;;;12.30;8.87;;;13.30;99.90;;;;;;5111125;28;20461;-68
2022/10/27 00:59:51;;;;;;;10.70;9.07;;;13.30;99.90;;;;;;5113669;28;20469;-68
2022/10/27 01:02:18;;;;;;;16.10;9.97;;;13.40;99.90;;;;;;5113937;28;20555;-68
2022/10/27 01:04:50;;;;;;;10.50;9.37;;;13.30;99.90;;;;;;5110331;28;20471;-69
2022/10/27 01:07:19;;;;;;;18.20;9.77;;;13.30;99.90;;;;;;5114264;27;20720;-69
2022/10/27 01:09:47;;;;;;;23.17;11.10;;;13.30;99.90;;;;;;5109907;28;20509;-73
2022/10/27 01:12:17;;;;;;;10.67;9.57;;;13.20;99.90;;;;;;5113366;28;21034;-72
2022/10/27 01:14:46;;;;;;;14.57;10.17;;;13.10;99.90;;;;;;5116176;28;20582;-68
2022/10/27 01:17:24;;;;;;;16.77;11.17;;;13.10;99.90;;;;;;5113604;28;20457;-68
2022/10/27 01:20:17;;;;;;;13.30;9.80;;;13.00;99.90;;;;;;5114782;27;20468;-69
2022/10/27 01:22:51;;;;;;;10.57;9.60;;;12.90;99.90;;;;;;5115618;27;20952;-68
2022/10/27 01:25:32;;;;;;;16.47;10.17;;;12.90;99.90;;;;;;5115202;27;21002;-68
2022/10/27 01:28:22;;;;;;;15.70;10.03;;;12.90;99.90;;;;;;5118803;27;20494;-69
2022/10/27 01:31:07;;;;;;;16.20;10.00;;;12.80;99.90;;;;;;5109287;27;20831;-72
2022/10/27 01:33:44;;;;;;;11.73;10.73;;;12.80;99.90;;;;;;5117186;27;20872;-71
2022/10/27 01:36:22;;;;;;;12.47;10.10;;;12.80;99.90;;;;;;5117218;27;20502;-68
2022/10/27 01:38:56;;;;;;;17.07;11.40;;;12.80;99.90;;;;;;5111631;27;20468;-68
2022/10/27 01:41:26;;;;;;;12.70;10.90;;;12.70;99.90;;;;;;5114390;27;20513;-72
2022/10/27 01:43:59;;;;;;;14.03;11.37;;;12.70;99.90;;;;;;5116799;27;20464;-69
2022/10/27 01:46:28;;;;;;;13.07;11.70;;;12.60;99.90;;;;;;5113985;27;20503;-69
2022/10/27 01:48:56;;;;;;;13.83;11.93;;;12.60;99.90;;;;;;5118281;27;20467;-68
2022/10/27 01:51:23;;;;;;;12.77;11.23;;;12.50;99.90;;;;;;5115597;27;20480;-68
2022/10/27 01:53:51;;;;;;;11.60;10.70;;;12.40;99.90;;;;;;5112455;27;20489;-68
2022/10/27 01:56:51;;;;;;;18.43;11.80;;;12.30;99.90;;;;;;5114797;27;20959;-68
2022/10/27 01:59:52;;;;;;;13.63;11.33;;;12.30;99.90;;;;;;5116804;27;20457;-68
2022/10/27 02:02:28;;;;;;;13.47;12.23;;;12.20;99.90;;;;;;5113480;27;20472;-70
2022/10/27 02:05:04;;;;;;;16.93;12.30;;;12.20;99.90;;;;;;5111268;27;20456;-68
2022/10/27 02:07:42;;;;;;;17.03;12.60;;;12.10;99.90;;;;;;5115295;27;20518;-70
2022/10/27 02:10:13;;;;;;;13.97;12.57;;;12.20;99.90;;;;;;5116145;27;20487;-68
2022/10/27 02:12:42;;;;;;;15.40;12.63;;;12.10;99.90;;;;;;5112181;27;20847;-72
2022/10/27 02:15:19;;;;;;;13.63;12.17;;;11.90;99.90;;;;;;5115101;27;20566;-68
2022/10/27 02:17:50;;;;;;;13.03;11.93;;;11.90;99.90;;;;;;5115013;27;20456;-68
2022/10/27 02:20:22;;;;;;;18.50;11.87;;;11.90;99.90;;;;;;5115844;27;20798;-72
2022/10/27 02:22:51;;;;;;;14.37;12.97;;;11.90;99.90;;;;;;5115183;27;20457;-68
2022/10/27 02:28:07;;;;;;;12.80;11.67;;;12.10;99.90;;;;;;5113607;27;20479;-68
2022/10/27 02:30:35;;;;;;;11.73;10.57;;;12.10;99.90;;;;;;5111228;27;20485;-68
2022/10/27 02:33:05;;;;;;;13.07;11.90;;;12.10;99.90;;;;;;5112147;27;20548;-71
2022/10/27 02:35:32;;;;;;;16.60;11.87;;;12.00;99.90;;;;;;5117140;27;20465;-68
2022/10/27 02:37:59;;;;;;;16.87;11.90;;;12.00;99.90;;;;;;5116082;27;20465;-68
2022/10/27 02:40:27;;;;;;;15.00;12.30;;;12.00;99.90;;;;;;5114299;27;20522;-69
2022/10/27 02:42:54;;;;;;;19.97;11.63;;;12.10;99.90;;;;;;5112495;27;20464;-70
2022/10/27 02:45:22;;;;;;;21.83;11.57;;;12.20;99.90;;;;;;5114629;27;21093;-69
2022/10/27 02:47:49;;;;;;;15.93;10.30;;;12.30;99.90;;;;;;5116913;27;20582;-73
2022/10/27 02:50:19;;;;;;;13.47;10.10;;;12.30;99.90;;;;;;5116477;27;20526;-68
2022/10/27 02:52:47;;;;;;;11.43;9.93;;;12.30;99.90;;;;;;5112076;27;20491;-69
2022/10/27 02:55:15;;;;;;;11.73;9.30;;;12.30;99.90;;;;;;5115355;27;20460;-70
2022/10/27 02:57:42;;;;;;;12.17;9.90;;;12.40;99.90;;;;;;5112002;27;20459;-69
2022/10/27 03:00:11;;;;;;;14.03;10.20;;;12.50;99.90;;;;;;5119336;27;20456;-68
2022/10/27 03:02:38;;;;;;;11.17;9.00;;;12.50;99.90;;;;;;5109329;27;20865;-68
2022/10/27 03:05:06;;;;;;;18.43;9.97;;;12.50;99.90;;;;;;5117032;27;20519;-68
2022/10/27 03:07:35;;;;;;;13.90;9.90;;;12.50;99.90;;;;;;5116979;27;20448;-71
2022/10/27 03:10:01;;;;;;;14.10;10.07;;;12.40;99.90;;;;;;5116170;27;20467;-71
2022/10/27 03:12:28;;;;;;;13.60;9.73;;;12.30;99.90;;;;;;5112674;27;20981;-68
2022/10/27 03:14:55;;;;;;;16.87;10.63;;;12.30;99.90;;;;;;5109471;27;20464;-69
2022/10/27 03:17:22;;;;;;;13.23;9.77;;;12.40;99.90;;;;;;5113001;27;21028;-71
2022/10/27 03:19:49;;;;;;;12.00;9.90;;;12.30;99.90;;;;;;5113205;27;20468;-70
2022/10/27 03:22:16;;;;;;;10.03;9.00;;;12.40;99.90;;;;;;5114335;27;20469;-68
2022/10/27 03:24:44;;;;;;;11.03;9.70;;;12.40;99.90;;;;;;5111690;27;21278;-67
2022/10/27 03:27:11;;;;;;;18.23;10.13;;;12.40;99.90;;;;;;5110246;27;20833;-71
2022/10/27 03:29:39;;;;;;;10.87;9.80;;;12.40;99.90;;;;;;5112572;27;20509;-72
2022/10/27 03:32:05;;;;;;;9.60;8.63;;;12.40;99.90;;;;;;5115463;27;20492;-68
2022/10/27 03:34:33;;;;;;;13.27;9.03;;;12.50;99.90;;;;;;5116476;27;21007;-70
2022/10/27 03:37:00;;;;;;;9.43;8.43;;;12.50;99.90;;;;;;5115242;27;20476;-71
2022/10/27 03:39:27;;;;;;;12.93;8.80;;;12.50;99.90;;;;;;5112354;27;20457;-69
2022/10/27 03:41:55;;;;;;;10.00;9.17;;;12.50;99.90;;;;;;5113039;27;20460;-69
2022/10/27 03:44:22;;;;;;;24.10;9.47;;;12.50;99.90;;;;;;5115249;27;20465;-72
2022/10/27 03:46:49;;;;;;;13.50;9.40;;;12.50;99.90;;;;;;5114542;27;20485;-69
2022/10/27 03:49:15;;;;;;;11.37;8.40;;;12.60;99.90;;;;;;5107981;27;20453;-69
2022/10/27 03:51:42;;;;;;;13.93;9.30;;;12.60;99.90;;;;;;5114880;27;21038;-69
2022/10/27 03:54:09;;;;;;;19.27;9.37;;;12.70;99.90;;;;;;5114054;27;20457;-68
2022/10/27 03:56:35;;;;;;;9.53;8.63;;;12.70;99.90;;;;;;5112137;27;20457;-70
2022/10/27 03:59:03;;;;;;;10.00;9.20;;;12.70;99.90;;;;;;5115733;27;20462;-68
2022/10/27 04:01:33;;;;;;;12.53;8.83;;;12.70;99.90;;;;;;5110754;27;20461;-68
2022/10/27 04:04:00;;;;;;;12.67;8.80;;;12.70;99.90;;;;;;5107177;27;20832;-69
2022/10/27 04:06:26;;;;;;;11.13;9.77;;;12.70;99.90;;;;;;5111623;27;20472;-69
2022/10/27 04:08:53;;;;;;;10.20;9.30;;;12.70;99.90;;;;;;5114603;27;20457;-69
2022/10/27 04:11:20;;;;;;;10.13;9.20;;;12.70;99.90;;;;;;5112759;27;20477;-69
2022/10/27 04:13:46;;;;;;;10.57;8.73;;;12.70;99.90;;;;;;5111796;27;20966;-69
2022/10/27 04:16:14;;;;;;;15.07;9.57;;;12.70;99.90;;;;;;5110566;27;20466;-69
2022/10/27 04:18:41;;;;;;;11.10;10.07;;;12.70;99.90;;;;;;5111827;27;20457;-69
2022/10/27 04:21:08;;;;;;;13.33;10.50;;;12.70;99.90;;;;;;5111842;27;20522;-69
2022/10/27 04:23:34;;;;;;;12.17;9.57;;;12.70;99.90;;;;;;5109495;27;20717;-69
2022/10/27 04:26:01;;;;;;;13.27;8.80;;;12.70;99.90;;;;;;5113021;27;20947;-69
2022/10/27 04:28:28;;;;;;;10.97;10.03;;;12.70;99.90;;;;;;5106903;27;21030;-69
2022/10/27 04:30:55;;;;;;;10.57;9.67;;;12.60;99.90;;;;;;5110151;27;20902;-69
2022/10/27 04:33:23;;;;;;;11.73;10.50;;;12.60;99.90;;;;;;5113535;27;20468;-68
2022/10/27 04:35:50;;;;;;;14.70;9.97;;;12.60;99.90;;;;;;5113374;27;20449;-69
2022/10/27 04:38:17;;;;;;;17.07;9.60;;;12.70;99.90;;;;;;5113006;27;20497;-70
2022/10/27 04:40:45;;;;;;;10.43;9.07;;;12.70;99.90;;;;;;5111576;27;20461;-71
2022/10/27 04:43:12;;;;;;;11.77;10.70;;;12.70;99.90;;;;;;5109635;27;20469;-69
2022/10/27 04:45:38;;;;;;;9.97;9.17;;;12.70;99.90;;;;;;5089853;28;20461;-69
2022/10/27 04:48:06;;;;;;;10.57;9.57;;;12.70;99.90;;;;;;5105008;27;20475;-69
2022/10/27 04:50:34;;;;;;;12.63;10.30;;;12.70;99.90;;;;;;5107807;27;20536;-70
2022/10/27 04:53:03;;;;;;;9.57;8.87;;;12.70;99.90;;;;;;5104153;28;20461;-69
2022/10/27 04:55:32;;;;;;;13.93;11.23;;;12.70;99.90;;;;;;5112514;28;20956;-71
2022/10/27 04:57:59;;;;;;;16.73;10.40;;;12.60;99.90;;;;;;5112020;28;20506;-69
2022/10/27 05:00:28;;;;;;;11.43;9.97;;;12.60;99.90;;;;;;5110084;28;20979;-71
2022/10/27 05:02:55;;;;;;;9.90;9.20;;;12.60;99.90;;;;;;5116856;28;20454;-69
2022/10/27 05:05:23;;;;;;;15.60;10.87;;;12.60;99.90;;;;;;5113947;28;20461;-70
2022/10/27 05:07:55;;;;;;;10.70;9.70;;;12.60;99.90;;;;;;5114358;28;20528;-69
2022/10/27 05:10:22;;;;;;;10.63;9.70;;;12.70;99.90;;;;;;5110922;28;20460;-68
2022/10/27 05:12:49;;;;;;;10.70;9.40;;;12.60;99.90;;;;;;5097159;28;20565;-69
2022/10/27 05:15:17;;;;;;;10.83;9.80;;;12.80;99.90;;;;;;5097930;27;20466;-70
2022/10/27 05:17:44;;;;;;;12.10;10.03;;;12.80;99.90;;;;;;5112310;28;20457;-68
2022/10/27 05:20:11;;;;;;;11.87;9.57;;;12.90;99.90;;;;;;5113230;28;20465;-68
2022/10/27 05:22:39;;;;;;;10.63;9.53;;;12.90;99.90;;;;;;5111123;28;20456;-68
2022/10/27 05:25:09;;;;;;;11.00;10.20;;;13.00;99.90;;;;;;5109845;28;20466;-68
2022/10/27 05:27:37;;;;;;;11.13;10.10;;;12.90;99.90;;;;;;5093692;28;20531;-69
2022/10/27 05:30:05;;;;;;;16.57;9.70;;;13.00;99.90;;;;;;5107191;28;20480;-68
2022/10/27 05:32:32;;;;;;;11.20;10.10;;;13.00;99.90;;;;;;5110607;28;20550;-70
2022/10/27 05:34:59;;;;;;;11.13;10.13;;;13.00;99.90;;;;;;5111888;28;20827;-68
2022/10/27 05:37:25;;;;;;;10.97;9.87;;;13.10;99.90;;;;;;5114311;28;20464;-68
2022/10/27 05:39:52;;;;;;;14.43;10.60;;;13.10;99.90;;;;;;5113987;28;20460;-68
2022/10/27 05:42:20;;;;;;;10.80;9.90;;;13.10;99.90;;;;;;5108486;28;20545;-70
2022/10/27 05:44:47;;;;;;;11.70;9.97;;;13.10;99.90;;;;;;5107686;28;20462;-68
2022/10/27 05:47:13;;;;;;;11.23;10.23;;;13.10;99.90;;;;;;5106889;28;20477;-68
2022/10/27 05:49:40;;;;;;;11.33;10.27;;;13.20;99.90;;;;;;5105889;28;20452;-67
2022/10/27 05:52:07;;;;;;;17.10;11.20;;;13.10;99.90;;;;;;5115679;28;20560;-68
2022/10/27 05:54:34;;;;;;;17.13;11.67;;;13.00;99.90;;;;;;5104892;28;20460;-67
2022/10/27 05:57:01;;;;;;;12.00;11.20;;;13.00;99.90;;;;;;5101616;28;20711;-67
2022/10/27 05:59:29;;;;;;;16.03;11.57;;;13.00;99.90;;;;;;5097867;28;20466;-68
2022/10/27 06:01:56;;;;;;;19.70;11.80;;;12.90;99.90;;;;;;5112833;28;20465;-68
2022/10/27 06:04:24;;;;;;;12.00;10.97;;;12.90;99.90;;;;;;5102878;28;20484;-68
2022/10/27 06:06:50;;;;;;;13.27;11.13;;;12.90;99.90;;;;;;5097920;27;20858;-71
2022/10/27 06:09:17;;;;;;;16.03;12.27;;;12.90;99.90;;;;;;5116250;27;20741;-67
2022/10/27 06:11:44;;;;;;;17.43;10.97;;;12.90;99.90;;;;;;5109140;27;20490;-68
2022/10/27 06:14:11;;;;;;;14.27;12.13;;;12.90;99.90;;;;;;5099252;27;20538;-68
2022/10/27 06:16:39;;;;;;;15.03;11.67;;;12.80;99.90;;;;;;5111117;27;20472;-68
2022/10/27 06:19:06;;;;;;;14.77;11.47;;;12.80;99.90;;;;;;5110166;27;20465;-71
2022/10/27 06:21:33;;;;;;;13.07;12.17;;;12.80;99.90;;;;;;5113819;27;20534;-67
2022/10/27 06:24:00;;;;;;;13.30;11.90;;;12.70;99.90;;;;;;5102326;27;21033;-68
2022/10/27 06:26:27;;;;;;;13.90;12.47;;;12.70;99.90;;;;;;5112715;27;20476;-71
2022/10/27 06:28:54;;;;;;;17.37;13.10;;;12.70;99.90;;;;;;5106364;27;20870;-68
2022/10/27 06:31:21;;;;;;;15.23;12.83;;;12.70;99.90;;;;;;5108623;27;20990;-68
2022/10/27 06:33:49;;;;;;;15.83;12.60;;;12.60;99.90;;;;;;5097291;27;20460;-68
2022/10/27 06:36:16;;;;;;;15.57;14.07;;;12.60;99.90;;;;;;5117052;27;20539;-68
2022/10/27 06:38:44;;;;;;;15.63;13.17;;;12.60;99.90;;;;;;5104479;27;20868;-68
2022/10/27 06:41:10;;;;;;;16.57;13.00;;;12.70;99.90;;;;;;5109941;27;20540;-68
2022/10/27 06:43:37;;;;;;;21.50;13.10;;;12.70;99.90;;;;;;5097424;27;20469;-68
2022/10/27 06:46:05;;;;;;;21.33;12.63;;;12.70;99.90;;;;;;5109042;27;20465;-68
2022/10/27 06:48:32;;;;;;;15.67;13.43;;;12.70;99.90;;;;;;5114080;27;20465;-68
2022/10/27 06:51:01;;;;;;;18.50;14.80;;;12.70;99.90;;;;;;5095514;28;21093;-69
2022/10/27 06:53:28;;;;;;;15.37;13.90;;;12.70;99.90;;;;;;5104737;28;20567;-69
2022/10/27 06:55:55;;;;;;;17.03;14.53;;;12.70;99.90;;;;;;5113102;27;20517;-69
2022/10/27 06:58:22;;;;;;;15.80;14.30;;;12.70;99.90;;;;;;5098306;27;20468;-69
2022/10/27 07:00:49;;;;;;;16.17;14.67;;;12.70;99.90;;;;;;5111584;27;20976;-69
2022/10/27 07:03:16;;;;;;;15.27;13.40;;;12.70;99.90;;;;;;5106775;27;20472;-69
2022/10/27 07:05:43;;;;;;;15.70;13.37;;;12.70;99.90;;;;;;5096552;27;20465;-71
2022/10/27 07:08:11;;;;;;;20.27;14.13;;;12.70;99.90;;;;;;5103623;27;20464;-69
2022/10/27 07:10:38;;;;;;;17.77;14.70;;;12.80;99.90;;;;;;5110978;27;20465;-69
2022/10/27 07:13:05;;;;;;;18.30;13.90;;;12.80;99.90;;;;;;5099478;27;20491;-69
2022/10/27 07:15:35;;;;;;;18.43;14.13;;;12.80;99.90;;;;;;5107208;27;21001;-69
2022/10/27 07:18:05;;;;;;;20.83;14.30;;;12.80;99.90;;;;;;5102617;27;20469;-68
2022/10/27 07:20:33;;;;;;;16.90;13.93;;;12.90;99.90;;;;;;5103467;27;20540;-68
2022/10/27 07:23:01;;;;;;;20.43;13.97;;;12.90;99.90;;;;;;5109185;27;20554;-67
2022/10/27 07:25:31;;;;;;;16.33;14.57;;;13.00;99.90;;;;;;5108719;27;20473;-68
2022/10/27 07:28:00;;;;;;;15.57;13.80;;;13.10;99.90;;;;;;5101746;27;20500;-68
2022/10/27 07:30:30;;;;;;;22.20;12.83;;;13.10;99.90;;;;;;5108302;27;20803;-70
2022/10/27 07:32:57;;;;;;;19.47;14.17;;;13.10;99.90;;;;;;5111016;27;20937;-71
2022/10/27 07:35:25;;;;;;;15.10;13.20;;;13.20;99.90;;;;;;5112122;27;21038;-68
2022/10/27 07:37:52;;;;;;;14.23;13.13;;;13.30;99.90;;;;;;5115271;27;20464;-70
2022/10/27 07:40:20;;;;;;;15.50;13.00;;;13.40;99.90;;;;;;5110119;27;20556;-68
2022/10/27 07:42:50;;;;;;;17.63;13.03;;;13.50;99.90;;;;;;5112378;27;20459;-69
2022/10/27 07:45:20;;;;;;;24.00;13.67;;;13.60;99.90;;;;;;5102513;27;20764;-68
2022/10/27 07:47:48;;;;;;;16.53;13.30;;;13.60;99.90;;;;;;5098496;28;20516;-68
2022/10/27 07:50:15;;;;;;;13.37;12.37;;;13.80;99.90;;;;;;5099357;28;20490;-71
2022/10/27 07:52:42;;;;;;;17.53;12.63;;;13.90;99.90;;;;;;5111790;27;20522;-72
2022/10/27 07:55:11;;;;;;;13.53;12.43;;;14.00;99.90;;;;;;5093582;27;20943;-69
2022/10/27 07:57:39;;;;;;;13.63;12.47;;;14.10;99.90;;;;;;5083492;27;20530;-71
2022/10/27 08:00:09;;;;;;;13.83;12.73;;;14.20;99.90;;;;;;5098916;27;20453;-69
2022/10/27 08:02:36;;;;;;;16.10;11.90;;;14.40;99.90;;;;;;5092025;28;20454;-69
2022/10/27 08:05:03;;;;;;;16.40;12.10;;;14.50;99.90;;;;;;5105081;27;20461;-70
2022/10/27 08:07:30;;;;;;;12.43;11.33;;;14.60;99.90;;;;;;5105588;27;20526;-70
2022/10/27 08:09:57;;;;;;;12.57;11.47;;;14.60;99.90;;;;;;5101046;27;20453;-68
2022/10/27 08:12:23;;;;;;;13.30;11.87;;;14.70;99.90;;;;;;5094726;27;20481;-69
2022/10/27 08:14:50;;;;;;;14.03;12.60;;;14.90;99.90;;;;;;5103935;27;21046;-68
2022/10/27 08:17:18;;;;;;;14.57;12.43;;;14.90;99.90;;;;;;5098432;27;20456;-70
2022/10/27 08:19:45;;;;;;;16.23;12.13;;;15.10;99.90;;;;;;5106184;27;20471;-68
2022/10/27 08:22:12;;;;;;;15.73;13.10;;;15.10;99.90;;;;;;5107081;27;20484;-69
2022/10/27 08:24:41;;;;;;;13.20;12.03;;;15.30;99.90;;;;;;5103488;27;20473;-68
2022/10/27 08:27:12;;;;;;;12.70;11.60;;;15.30;99.90;;;;;;5097440;27;21040;-68
2022/10/27 08:29:39;;;;;;;17.73;11.87;;;15.50;99.90;;;;;;5099528;27;20483;-68
2022/10/27 08:32:06;;;;;;;18.37;12.20;;;15.60;99.90;;;;;;5107307;27;20496;-69
2022/10/27 08:34:35;;;;;;;13.87;12.60;;;15.60;99.90;;;;;;5102132;27;20671;-68
2022/10/27 08:37:02;;;;;;;13.60;12.07;;;15.80;99.90;;;;;;5110218;27;21308;-68
2022/10/27 08:39:29;;;;;;;14.97;13.30;;;15.90;99.90;;;;;;5102662;27;20460;-71
2022/10/27 08:42:02;;;;;;;13.70;12.37;;;16.00;99.90;;;;;;5102720;27;20460;-69
2022/10/27 08:44:32;;;;;;;13.00;12.10;;;16.10;99.90;;;;;;5098551;28;20457;-68
2022/10/27 08:47:03;;;;;;;14.20;12.90;;;16.20;99.90;;;;;;5106292;28;20500;-69
2022/10/27 08:49:37;;;;;;;21.00;13.33;;;16.30;99.90;;;;;;5102232;28;20448;-69
2022/10/27 08:52:11;;;;;;;15.03;14.00;;;16.40;99.90;;;;;;5106209;27;20514;-69
2022/10/27 08:54:39;;;;;;;14.73;13.43;;;16.50;99.90;;;;;;5102433;28;20465;-69
2022/10/27 08:57:09;;;;;;;19.63;13.80;;;16.60;99.90;;;;;;5105497;28;20484;-70
2022/10/27 08:59:36;;;;;;;15.33;13.67;;;16.70;99.90;;;;;;5101735;28;20477;-68
2022/10/27 09:02:17;;;;;;;13.80;12.80;;;16.80;99.90;;;;;;5107785;28;20892;-68
2022/10/27 09:04:57;;;;;;;15.70;13.80;;;16.90;99.90;;;;;;5106952;28;20538;-69
2022/10/27 09:07:32;;;;;;;14.90;13.60;;;17.10;99.90;;;;;;5103215;28;20473;-68
2022/10/27 09:10:02;;;;;;;15.10;13.43;;;17.10;99.90;;;;;;5108223;28;20544;-71
2022/10/27 09:12:50;;;;;;;15.60;14.00;;;17.20;99.90;;;;;;5105998;28;20488;-69
2022/10/27 09:15:37;;;;;;;17.17;13.50;;;17.30;99.90;;;;;;5106062;28;20466;-72
2022/10/27 09:18:10;;;;;;;15.03;13.57;;;17.30;99.90;;;;;;5112406;28;20471;-68
2022/10/27 09:20:42;;;;;;;14.43;13.00;;;17.50;99.90;;;;;;5102840;28;20483;-69
2022/10/27 09:23:13;;;;;;;14.87;13.67;;;17.70;99.90;;;;;;5104377;28;20468;-69
2022/10/27 09:25:41;;;;;;;16.30;15.00;;;17.90;99.90;;;;;;5102570;28;20464;-69
2022/10/27 09:28:17;;;;;;;14.67;13.40;;;18.00;99.90;;;;;;5101653;28;20728;-69
2022/10/27 09:30:46;;;;;;;14.33;13.37;;;18.10;99.90;;;;;;5103932;28;20472;-72
2022/10/27 09:33:18;;;;;;;15.10;14.00;;;18.20;99.90;;;;;;5108897;28;20851;-69
2022/10/27 09:35:47;;;;;;;15.80;14.37;;;18.30;99.90;;;;;;5107066;28;20553;-69
2022/10/27 09:38:17;;;;;;;15.57;14.13;;;18.50;99.90;;;;;;5106322;28;21003;-68
2022/10/27 09:40:44;;;;;;;15.13;14.03;;;18.60;99.90;;;;;;5098397;27;20548;-68
2022/10/27 09:43:11;;;;;;;19.00;14.17;;;18.70;99.90;;;;;;5104462;27;20825;-70
2022/10/27 09:45:40;;;;;;;14.87;13.87;;;18.80;99.90;;;;;;5105502;27;20962;-70
2022/10/27 09:48:14;;;;;;;14.27;13.43;;;18.80;99.90;;;;;;5093980;28;20472;-69
2022/10/27 09:50:51;;;;;;;15.07;13.90;;;18.90;99.90;;;;;;5108212;27;20459;-68
2022/10/27 09:53:39;;;;;;;14.97;13.87;;;19.00;99.90;;;;;;5104668;27;21272;-69
2022/10/27 09:56:09;;;;;;;14.70;13.60;;;19.10;99.90;;;;;;5107397;27;20452;-68
2022/10/27 09:58:49;;;;;;;15.50;14.30;;;19.30;99.90;;;;;;5107969;27;20473;-72
2022/10/27 10:01:17;;;;;;;15.27;14.07;;;19.50;99.90;;;;;;5106130;27;20976;-68
2022/10/27 10:03:56;;;;;;;15.90;14.60;;;19.60;99.90;;;;;;5106713;27;20468;-70
2022/10/27 10:06:29;;;;;;;16.90;14.37;;;19.60;99.90;;;;;;5105220;27;20963;-68
2022/10/27 10:09:17;;;;;;;15.77;14.50;;;19.80;99.90;;;;;;5101129;27;20469;-70
2022/10/27 10:11:44;;;;;;;16.00;14.80;;;20.00;99.90;;;;;;5106312;27;20464;-69
2022/10/27 10:14:21;;;;;;;15.20;14.30;;;20.40;99.90;;;;;;5103825;27;20488;-69
2022/10/27 10:16:49;;;;;;;16.57;15.03;;;21.00;99.90;;;;;;5107362;27;20469;-69
2022/10/27 10:19:18;;;;;;;15.30;14.20;;;21.40;99.90;;;;;;5108108;27;20463;-68
2022/10/27 10:21:50;;;;;;;15.47;14.27;;;21.30;99.90;;;;;;5104788;27;20567;-70
2022/10/27 10:24:19;;;;;;;14.87;14.07;;;21.70;99.90;;;;;;5107005;27;20771;-70
2022/10/27 10:26:48;;;;;;;15.10;14.20;;;22.00;99.90;;;;;;5108851;27;20464;-69
2022/10/27 10:29:27;;;;;;;16.47;14.77;;;22.30;99.90;;;;;;5109488;27;20589;-69
2022/10/27 10:32:08;;;;;;;15.93;14.83;;;22.70;99.90;;;;;;5107537;27;20457;-68
2022/10/27 10:34:35;;;;;;;16.10;15.20;;;23.00;99.90;;;;;;5106818;27;20570;-70
2022/10/27 10:37:04;;;;;;;16.43;15.27;;;23.10;99.90;;;;;;5107412;27;20469;-70
2022/10/27 10:39:35;;;;;;;16.37;14.93;;;22.70;99.90;;;;;;5101726;27;20460;-69
2022/10/27 10:42:18;;;;;;;16.17;14.80;;;22.60;99.90;;;;;;5107327;27;20461;-70
2022/10/27 10:44:44;;;;;;;15.90;14.83;;;22.40;99.90;;;;;;5096973;28;20484;-70
2022/10/27 10:47:24;;;;;;;15.40;14.60;;;22.50;99.90;;;;;;5106228;27;20926;-71
2022/10/27 10:49:54;;;;;;;15.90;14.70;;;22.80;99.90;;;;;;5107379;27;20468;-70
2022/10/27 10:52:25;;;;;;;15.70;14.80;;;23.00;99.90;;;;;;5104942;27;20461;-70
2022/10/27 10:54:52;;;;;;;15.80;14.90;;;23.20;99.90;;;;;;5109517;27;20578;-73
2022/10/27 10:57:28;;;;;;;17.37;15.80;;;23.50;99.90;;;;;;5104077;27;20954;-72
2022/10/27 10:59:57;;;;;;;16.13;15.33;;;23.90;99.90;;;;;;5110055;27;20456;-71
2022/10/27 11:02:28;;;;;;;16.90;15.60;;;23.80;99.90;;;;;;5105305;27;20453;-72
2022/10/27 11:04:57;;;;;;;15.83;14.70;;;23.60;99.90;;;;;;5115631;27;21055;-71
2022/10/27 11:07:27;;;;;;;16.20;15.20;;;23.90;99.90;;;;;;5107618;27;21025;-71
2022/10/27 11:10:01;;;;;;;17.00;15.60;;;24.10;99.90;;;;;;5101287;27;20461;-70
2022/10/27 11:12:33;;;;;;;16.10;15.00;;;24.10;99.90;;;;;;5106378;27;20942;-70
2022/10/27 11:15:06;;;;;;;17.27;15.97;;;24.20;99.90;;;;;;5100832;28;20991;-70
2022/10/27 11:17:36;;;;;;;16.50;15.20;;;24.60;99.90;;;;;;5107973;27;20489;-70
2022/10/27 11:20:06;;;;;;;16.30;15.17;;;24.60;99.90;;;;;;5107612;27;20468;-73
2022/10/27 11:22:36;;;;;;;15.90;14.80;;;24.50;99.90;;;;;;5103780;27;21477;-70
2022/10/27 11:25:07;;;;;;;17.03;15.83;;;24.80;99.90;;;;;;5110879;27;20828;-69
2022/10/27 11:27:42;;;;;;;16.57;15.10;;;24.90;99.90;;;;;;5105607;27;20504;-68
2022/10/27 11:30:19;;;;;;;20.33;15.30;;;24.80;99.90;;;;;;5099956;27;21070;-68
2022/10/27 11:32:53;;;;;;;18.17;16.17;;;24.70;99.90;;;;;;5105974;27;20473;-68
2022/10/27 11:35:25;;;;;;;17.33;15.90;;;25.10;99.90;;;;;;5102504;27;20461;-69
2022/10/27 11:38:02;;;;;;;16.60;15.60;;;25.10;99.90;;;;;;5105483;27;20879;-68
2022/10/27 11:40:38;;;;;;;20.73;15.83;;;25.20;99.90;;;;;;5101292;27;20453;-68
2022/10/27 11:43:11;;;;;;;15.40;14.33;;;25.00;99.90;;;;;;5099681;27;20983;-68
2022/10/27 11:45:43;;;;;;;16.80;15.60;;;25.40;99.90;;;;;;5103254;27;20461;-68
2022/10/27 11:48:15;;;;;;;16.67;15.60;;;25.60;99.90;;;;;;5108400;27;20476;-69
2022/10/27 11:50:47;;;;;;;16.97;15.83;;;25.60;99.90;;;;;;5095632;27;20474;-67
2022/10/27 11:53:16;;;;;;;16.47;15.20;;;25.30;99.90;;;;;;5103017;27;20469;-68
2022/10/27 11:56:02;;;;;;;16.73;15.60;;;25.10;99.90;;;;;;5104433;27;20948;-67
2022/10/27 11:58:41;;;;;;;16.40;15.10;;;24.60;99.90;;;;;;5087237;27;20489;-68
2022/10/27 12:01:21;;;;;;;16.40;15.10;;;24.80;99.90;;;;;;5090832;27;20459;-68
2022/10/27 12:03:58;;;;;;;16.63;15.53;;;25.10;99.90;;;;;;5087418;27;20461;-67
2022/10/27 12:06:30;;;;;;;17.67;16.27;;;24.90;99.90;;;;;;5103231;28;20465;-67
2022/10/27 12:09:09;;;;;;;16.70;15.60;;;25.00;99.90;;;;;;5105801;27;20466;-67
2022/10/27 12:11:47;;;;;;;16.43;15.20;;;25.30;99.90;;;;;;5104182;27;20906;-68
2022/10/27 12:14:22;;;;;;;18.60;16.57;;;25.30;99.90;;;;;;5103086;27;20488;-68
2022/10/27 12:16:55;;;;;;;17.67;16.17;;;25.30;99.90;;;;;;5099507;27;20457;-68
2022/10/27 12:19:27;;;;;;;16.77;15.67;;;25.20;99.90;;;;;;5102301;27;20830;-70
2022/10/27 12:21:57;;;;;;;18.17;16.40;;;25.50;99.90;;;;;;5102648;27;20554;-68
2022/10/27 12:24:31;;;;;;;17.50;15.87;;;25.30;99.90;;;;;;5097218;27;21135;-68
2022/10/27 12:27:05;;;;;;;16.87;15.23;;;25.40;99.90;;;;;;5092587;27;20858;-70
2022/10/27 12:29:35;;;;;;;17.30;15.80;;;25.30;99.90;;;;;;5102983;27;21420;-68
2022/10/27 12:32:10;;;;;;;17.50;16.13;;;25.30;99.90;;;;;;5094391;27;20512;-69
2022/10/27 12:34:40;;;;;;;18.10;16.30;;;25.50;99.90;;;;;;5100138;27;20485;-71
2022/10/27 12:37:14;;;;;;;18.50;16.67;;;25.90;99.90;;;;;;5104193;27;20468;-69
2022/10/27 12:39:50;;;;;;;18.97;16.83;;;25.90;99.90;;;;;;5099831;27;20493;-71
2022/10/27 12:42:23;;;;;;;19.43;16.30;;;25.70;99.90;;;;;;5100007;27;20840;-70
2022/10/27 12:44:59;;;;;;;18.37;16.20;;;25.80;99.90;;;;;;5063671;27;20493;-69